Time;durP1;ratioP1;P1;durP2;ratioP2;P2;SDS_P1;SDS_P2;PMS_P1;PMS_P2;Temp;Humidity;BMP_temperature;BMP_pressure;BME280_temperature;BME280_humidity;BME280_pressure;Samples;Min_cycle;Max_cycle;Signal;HPM_P1;HPM_P2
2021/05/06 00:04:20;;;;;;;5.90;2.38;;;;;;;;;;4975722;28;20243;-86
2021/05/06 00:33:57;;;;;;;4.07;2.10;;;;;;;;;;5013218;28;20187;-88
2021/05/06 00:36:23;;;;;;;3.25;1.80;;;;;;;;;;4999151;28;20171;-88
2021/05/06 00:38:54;;;;;;;4.60;1.75;;;;;;;;;;5002753;28;20187;-89
2021/05/06 00:53:58;;;;;;;3.63;2.17;;;;;;;;;;5033989;28;20240;-88
2021/05/06 00:56:18;;;;;;;3.13;1.75;;;;;;;;;;5029585;28;20212;-88
2021/05/06 00:58:34;;;;;;;2.30;2.00;;;;;;;;;;5040130;28;20656;-86
2021/05/06 01:04:01;;;;;;;4.07;1.85;;;;;;;;;;5036406;28;20998;-89
2021/05/06 01:06:34;;;;;;;3.35;1.88;;;;;;;;;;5057039;28;20174;-86
2021/05/06 01:09:05;;;;;;;2.92;2.03;;;;;;;;;;5032614;28;20178;-89
2021/05/06 01:11:39;;;;;;;2.75;2.00;;;;;;;;;;5057536;28;20617;-86
2021/05/06 01:14:08;;;;;;;6.82;2.40;;;;;;;;;;5034817;28;21143;-90
2021/05/06 01:16:34;;;;;;;5.72;1.80;;;;;;;;;;5048216;28;20186;-87
2021/05/06 01:19:00;;;;;;;1.85;1.63;;;;;;;;;;5058570;28;20247;-87
2021/05/06 01:21:26;;;;;;;4.65;1.50;;;;;;;;;;5031161;28;20174;-89
2021/05/06 01:23:53;;;;;;;5.22;2.10;;;;;;;;;;5029085;28;20183;-90
2021/05/06 01:26:49;;;;;;;5.00;1.70;;;;;;;;;;5036915;28;20213;-87
2021/05/06 01:29:15;;;;;;;3.28;1.65;;;;;;;;;;5039293;28;20220;-88
2021/05/06 01:31:49;;;;;;;1.88;1.77;;;;;;;;;;5033326;28;20178;-87
2021/05/06 01:34:21;;;;;;;5.70;2.00;;;;;;;;;;5059411;28;20213;-87
2021/05/06 01:36:52;;;;;;;1.75;1.30;;;;;;;;;;5042859;28;20262;-86
2021/05/06 01:42:17;;;;;;;2.72;1.70;;;;;;;;;;5043387;28;20178;-86
2021/05/06 01:47:49;;;;;;;3.58;1.25;;;;;;;;;;5042403;28;20193;-86
2021/05/06 01:58:35;;;;;;;1.63;1.48;;;;;;;;;;5031104;28;20196;-86
2021/05/06 02:01:06;;;;;;;4.57;1.65;;;;;;;;;;5027345;28;20192;-86
2021/05/06 02:03:32;;;;;;;3.05;1.38;;;;;;;;;;5031642;28;20170;-86
2021/05/06 02:05:58;;;;;;;2.50;1.90;;;;;;;;;;5036675;28;20174;-86
2021/05/06 02:08:24;;;;;;;2.67;1.50;;;;;;;;;;5035935;28;20197;-87
2021/05/06 02:10:54;;;;;;;2.22;1.60;;;;;;;;;;5031217;28;20205;-87
2021/05/06 02:13:20;;;;;;;2.47;1.58;;;;;;;;;;5056744;28;20186;-87
2021/05/06 02:15:54;;;;;;;2.70;1.40;;;;;;;;;;5039934;28;20204;-87
2021/05/06 02:18:21;;;;;;;3.63;1.65;;;;;;;;;;5060462;28;20187;-86
2021/05/06 02:20:48;;;;;;;5.00;1.30;;;;;;;;;;5034097;28;20258;-86
2021/05/06 02:23:14;;;;;;;3.38;1.25;;;;;;;;;;5037201;28;20190;-87
2021/05/06 02:25:40;;;;;;;5.25;1.60;;;;;;;;;;5042584;28;20177;-87
2021/05/06 02:28:06;;;;;;;2.33;1.38;;;;;;;;;;5057852;28;20188;-87
2021/05/06 02:30:32;;;;;;;5.45;1.60;;;;;;;;;;5041700;28;20208;-87
2021/05/06 02:32:58;;;;;;;1.70;1.30;;;;;;;;;;5037292;28;20241;-87
2021/05/06 02:35:24;;;;;;;2.95;1.52;;;;;;;;;;5055025;28;20209;-87
2021/05/06 02:37:51;;;;;;;4.15;2.03;;;;;;;;;;5033361;28;20356;-87
2021/05/06 02:40:17;;;;;;;2.05;1.33;;;;;;;;;;5042283;28;20193;-86
2021/05/06 02:42:43;;;;;;;3.35;1.48;;;;;;;;;;5030655;28;20178;-87
2021/05/06 02:45:11;;;;;;;3.38;1.33;;;;;;;;;;5058995;28;20214;-86
2021/05/06 02:47:37;;;;;;;3.25;2.03;;;;;;;;;;5034767;28;20241;-85
2021/05/06 02:50:04;;;;;;;3.33;1.50;;;;;;;;;;5035574;28;20248;-86
2021/05/06 02:52:37;;;;;;;2.08;1.33;;;;;;;;;;5040921;28;20177;-86
2021/05/06 02:55:22;;;;;;;3.33;1.40;;;;;;;;;;5057231;28;20205;-86
2021/05/06 02:57:54;;;;;;;4.25;2.15;;;;;;;;;;5029936;28;20188;-86
2021/05/06 03:03:06;;;;;;;2.95;1.30;;;;;;;;;;5042203;28;20539;-86
2021/05/06 03:05:35;;;;;;;2.10;1.45;;;;;;;;;;5035256;28;20256;-87
2021/05/06 03:10:42;;;;;;;2.95;1.65;;;;;;;;;;5041097;28;20205;-87
2021/05/06 03:23:30;;;;;;;3.30;1.15;;;;;;;;;;5035493;28;20253;-86
2021/05/06 03:25:56;;;;;;;4.53;2.75;;;;;;;;;;5033304;28;20217;-86
2021/05/06 03:28:29;;;;;;;3.20;1.23;;;;;;;;;;5057155;28;20186;-86
2021/05/06 03:41:37;;;;;;;4.43;1.52;;;;;;;;;;5016643;28;20206;-86
2021/05/06 03:42:14;;;;;;;1.50;1.10;;;;;;;;;;5013721;28;20250;-88
2021/05/06 03:47:48;;;;;;;4.45;1.70;;;;;;;;;;5014700;28;20213;-87
2021/05/06 04:17:27;;;;;;;4.82;1.70;;;;;;;;;;5039824;28;20247;-89
2021/05/06 04:31:24;;;;;;;3.15;1.73;;;;;;;;;;5035196;28;20212;-90
2021/05/06 04:38:38;;;;;;;2.30;1.50;;;;;;;;;;5037733;28;20202;-88
2021/05/06 04:44:18;;;;;;;3.40;1.70;;;;;;;;;;5043614;28;20181;-88
2021/05/06 04:54:56;;;;;;;5.47;2.03;;;;;;;;;;5025245;28;20220;-84
2021/05/06 05:04:59;;;;;;;3.60;2.10;;;;;;;;;;5037046;28;20498;-86
2021/05/06 05:07:34;;;;;;;5.32;2.28;;;;;;;;;;5059223;28;20186;-88
2021/05/06 05:23:52;;;;;;;8.88;2.38;;;;;;;;;;4991045;28;20240;-89
2021/05/06 05:26:18;;;;;;;4.97;2.60;;;;;;;;;;4985308;28;20206;-92
2021/05/06 05:28:44;;;;;;;6.10;1.95;;;;;;;;;;4985278;28;20246;-93
2021/05/06 05:31:10;;;;;;;10.05;2.95;;;;;;;;;;4986979;28;20202;-92
2021/05/06 05:34:03;;;;;;;5.18;2.20;;;;;;;;;;4998174;28;20176;-92
2021/05/06 05:36:25;;;;;;;7.22;2.80;;;;;;;;;;5003134;28;20175;-90
2021/05/06 05:39:03;;;;;;;5.00;2.40;;;;;;;;;;5002316;28;20250;-92
2021/05/06 05:55:23;;;;;;;4.38;3.97;;;;;;;;;;4981978;28;20216;-90
2021/05/06 05:57:51;;;;;;;8.27;2.80;;;;;;;;;;4990008;28;20187;-89
2021/05/06 06:00:18;;;;;;;5.63;3.28;;;;;;;;;;4994352;28;20179;-87
2021/05/06 06:02:44;;;;;;;7.82;2.80;;;;;;;;;;4997841;28;20191;-89
2021/05/06 06:05:10;;;;;;;5.40;2.80;;;;;;;;;;4980465;28;20202;-87
2021/05/06 06:07:36;;;;;;;6.90;3.60;;;;;;;;;;5002713;28;20193;-92
2021/05/06 06:10:03;;;;;;;10.57;3.78;;;;;;;;;;4998443;28;20242;-89
2021/05/06 06:12:29;;;;;;;3.15;2.70;;;;;;;;;;4985370;28;20179;-88
2021/05/06 06:17:21;;;;;;;6.97;3.20;;;;;;;;;;5000271;28;20191;-89
2021/05/06 06:19:51;;;;;;;6.13;3.72;;;;;;;;;;5001547;28;20197;-87
2021/05/06 06:22:20;;;;;;;9.43;5.03;;;;;;;;;;5000230;28;20190;-88
2021/05/06 06:24:46;;;;;;;73.15;60.55;;;;;;;;;;5056108;28;20186;-87
2021/05/06 06:27:13;;;;;;;25.98;19.52;;;;;;;;;;5031971;28;20182;-87
2021/05/06 06:29:39;;;;;;;34.00;23.58;;;;;;;;;;5036733;28;20289;-86
2021/05/06 06:32:09;;;;;;;10.68;6.05;;;;;;;;;;5026592;28;20182;-86
2021/05/06 06:34:35;;;;;;;21.17;15.50;;;;;;;;;;5029626;28;20181;-89
2021/05/06 06:37:01;;;;;;;9.50;6.77;;;;;;;;;;5031324;28;20236;-84
2021/05/06 06:39:27;;;;;;;5.82;3.38;;;;;;;;;;5036857;28;20428;-87
2021/05/06 06:41:54;;;;;;;7.90;4.43;;;;;;;;;;5043210;28;20691;-89
2021/05/06 06:44:24;;;;;;;5.32;3.63;;;;;;;;;;5041742;28;20236;-89
2021/05/06 06:47:00;;;;;;;7.55;4.55;;;;;;;;;;5042266;28;20180;-86
2021/05/06 06:49:28;;;;;;;6.60;3.55;;;;;;;;;;5057712;28;20308;-89
2021/05/06 06:51:53;;;;;;;11.02;3.28;;;;;;;;;;5040250;28;20174;-85
2021/05/06 06:54:19;;;;;;;7.22;3.28;;;;;;;;;;5059376;28;20174;-86
2021/05/06 06:56:45;;;;;;;5.03;4.57;;;;;;;;;;5036258;28;20183;-89
2021/05/06 06:59:11;;;;;;;7.10;5.57;;;;;;;;;;5036880;28;20185;-87
2021/05/06 07:01:38;;;;;;;8.43;3.38;;;;;;;;;;5039224;28;20240;-88
2021/05/06 07:04:04;;;;;;;6.95;4.05;;;;;;;;;;5058073;28;20662;-89
2021/05/06 07:06:30;;;;;;;5.35;2.90;;;;;;;;;;5031291;28;20171;-89
2021/05/06 07:08:56;;;;;;;5.10;3.10;;;;;;;;;;5033449;28;20264;-85
2021/05/06 07:11:22;;;;;;;5.10;3.30;;;;;;;;;;5037050;28;20224;-88
2021/05/06 07:13:48;;;;;;;6.30;3.38;;;;;;;;;;5032532;28;20221;-88
2021/05/06 07:16:15;;;;;;;7.63;2.80;;;;;;;;;;5040599;28;20212;-83
2021/05/06 07:18:41;;;;;;;4.60;2.75;;;;;;;;;;5040991;28;20182;-85
2021/05/06 07:21:07;;;;;;;5.85;3.03;;;;;;;;;;5040809;28;20647;-83
2021/05/06 07:23:34;;;;;;;5.47;2.65;;;;;;;;;;5036975;28;20194;-84
2021/05/06 07:26:00;;;;;;;3.67;2.92;;;;;;;;;;5025239;28;20422;-83
2021/05/06 07:28:34;;;;;;;3.10;2.75;;;;;;;;;;5034758;28;20186;-84
2021/05/06 07:31:02;;;;;;;5.85;3.75;;;;;;;;;;5053887;28;20309;-86
2021/05/06 07:33:29;;;;;;;4.35;3.50;;;;;;;;;;5039835;28;20182;-83
2021/05/06 07:35:55;;;;;;;3.47;3.17;;;;;;;;;;5034384;28;20624;-85
2021/05/06 07:38:21;;;;;;;7.10;2.70;;;;;;;;;;5040603;28;20194;-85
2021/05/06 07:40:47;;;;;;;5.03;2.40;;;;;;;;;;5037124;28;20225;-84
2021/05/06 07:43:13;;;;;;;6.78;2.70;;;;;;;;;;5043293;28;20196;-85
2021/05/06 07:45:39;;;;;;;3.65;2.70;;;;;;;;;;5044808;28;20571;-85
2021/05/06 07:48:05;;;;;;;6.95;3.28;;;;;;;;;;5041217;28;20228;-83
2021/05/06 07:50:31;;;;;;;4.20;2.78;;;;;;;;;;5056163;28;20259;-83
2021/05/06 07:53:06;;;;;;;4.00;3.05;;;;;;;;;;5059769;28;20240;-83
2021/05/06 07:55:33;;;;;;;6.28;2.70;;;;;;;;;;5044181;28;20176;-83
2021/05/06 07:58:00;;;;;;;4.15;2.83;;;;;;;;;;5030161;28;20174;-86
2021/05/06 08:00:26;;;;;;;6.30;2.63;;;;;;;;;;5031614;28;20186;-86
2021/05/06 08:02:52;;;;;;;4.00;2.38;;;;;;;;;;5046784;28;20576;-85
2021/05/06 08:05:18;;;;;;;3.20;2.88;;;;;;;;;;5043480;28;20190;-87
2021/05/06 08:07:44;;;;;;;3.88;2.28;;;;;;;;;;5032743;28;20331;-83
2021/05/06 08:10:11;;;;;;;4.13;2.50;;;;;;;;;;5032476;28;20260;-85
2021/05/06 08:12:37;;;;;;;4.80;3.40;;;;;;;;;;5045118;28;20229;-87
2021/05/06 08:15:06;;;;;;;5.70;2.92;;;;;;;;;;5033578;28;20257;-83
2021/05/06 08:17:32;;;;;;;8.20;3.28;;;;;;;;;;5038651;28;20191;-85
2021/05/06 08:20:00;;;;;;;4.30;2.85;;;;;;;;;;5030984;28;20186;-83
2021/05/06 08:22:26;;;;;;;6.03;3.30;;;;;;;;;;5033282;28;20193;-87
2021/05/06 08:24:52;;;;;;;9.07;3.60;;;;;;;;;;5030682;28;20933;-93
2021/05/06 08:27:18;;;;;;;3.73;2.63;;;;;;;;;;5034246;28;20429;-85
2021/05/06 08:29:45;;;;;;;6.88;2.90;;;;;;;;;;5033112;28;20460;-82
2021/05/06 08:32:11;;;;;;;4.50;2.85;;;;;;;;;;5034586;28;20181;-83
2021/05/06 08:34:37;;;;;;;4.13;2.72;;;;;;;;;;5036880;28;20652;-82
2021/05/06 08:37:03;;;;;;;7.57;3.80;;;;;;;;;;5059281;28;20178;-83
2021/05/06 08:39:29;;;;;;;6.82;3.67;;;;;;;;;;5034832;28;20680;-82
2021/05/06 08:41:55;;;;;;;5.60;3.53;;;;;;;;;;5038198;28;20249;-82
2021/05/06 08:44:29;;;;;;;5.78;3.45;;;;;;;;;;5039879;28;20476;-84
2021/05/06 08:47:06;;;;;;;5.47;3.25;;;;;;;;;;5043249;28;20188;-83
2021/05/06 08:49:32;;;;;;;5.25;2.72;;;;;;;;;;5032990;28;20201;-81
2021/05/06 08:51:59;;;;;;;4.18;3.33;;;;;;;;;;5054491;28;20258;-81
2021/05/06 08:54:25;;;;;;;4.95;3.55;;;;;;;;;;5035823;28;20178;-81
2021/05/06 08:56:52;;;;;;;3.85;2.88;;;;;;;;;;5049326;28;20178;-82
2021/05/06 08:59:18;;;;;;;4.93;3.92;;;;;;;;;;5038134;28;20253;-81
2021/05/06 09:01:44;;;;;;;4.00;3.00;;;;;;;;;;5029805;28;20201;-83
2021/05/06 09:04:10;;;;;;;5.05;2.97;;;;;;;;;;5031750;28;20448;-82
2021/05/06 09:06:36;;;;;;;7.20;2.70;;;;;;;;;;5031786;28;20201;-82
2021/05/06 09:09:04;;;;;;;5.35;2.80;;;;;;;;;;5032560;28;20174;-83
2021/05/06 09:11:35;;;;;;;4.93;2.70;;;;;;;;;;5033597;28;20185;-83
2021/05/06 09:14:02;;;;;;;4.45;2.58;;;;;;;;;;5031885;28;20193;-83
2021/05/06 09:16:35;;;;;;;5.22;2.78;;;;;;;;;;5037576;28;20182;-84
2021/05/06 09:19:06;;;;;;;4.68;2.75;;;;;;;;;;5046059;28;20227;-85
2021/05/06 09:21:33;;;;;;;8.68;3.25;;;;;;;;;;5041982;28;20185;-85
2021/05/06 09:24:26;;;;;;;6.35;2.40;;;;;;;;;;5037715;28;20535;-84
2021/05/06 09:26:53;;;;;;;5.43;4.45;;;;;;;;;;5039590;28;20193;-85
2021/05/06 09:29:34;;;;;;;4.40;3.10;;;;;;;;;;5036471;28;20178;-85
2021/05/06 09:32:10;;;;;;;7.07;3.70;;;;;;;;;;5051066;28;20366;-88
2021/05/06 09:34:37;;;;;;;8.68;2.78;;;;;;;;;;5040405;28;20189;-86
2021/05/06 09:37:03;;;;;;;9.40;3.10;;;;;;;;;;5031182;28;20174;-85
2021/05/06 09:39:29;;;;;;;12.00;3.00;;;;;;;;;;5035600;28;20268;-83
2021/05/06 09:42:11;;;;;;;6.28;2.63;;;;;;;;;;5050926;28;20189;-83
2021/05/06 09:44:57;;;;;;;5.28;3.08;;;;;;;;;;5036617;28;20229;-82
2021/05/06 09:47:23;;;;;;;13.93;5.43;;;;;;;;;;5037804;28;20185;-79
2021/05/06 09:49:50;;;;;;;8.15;2.25;;;;;;;;;;5039723;28;20674;-82
2021/05/06 09:52:16;;;;;;;3.78;2.45;;;;;;;;;;5031640;28;20185;-80
2021/05/06 09:54:47;;;;;;;3.13;2.42;;;;;;;;;;5040578;28;20178;-82
2021/05/06 09:57:13;;;;;;;4.53;1.30;;;;;;;;;;5050341;28;20162;-80
2021/05/06 09:59:39;;;;;;;2.45;1.92;;;;;;;;;;5036271;28;20182;-82
2021/05/06 10:02:09;;;;;;;4.80;1.83;;;;;;;;;;5035874;28;20186;-82
2021/05/06 10:04:36;;;;;;;2.08;1.88;;;;;;;;;;5032604;28;20193;-80
2021/05/06 10:07:08;;;;;;;2.45;1.48;;;;;;;;;;5046531;28;20178;-81
2021/05/06 10:09:34;;;;;;;4.68;1.83;;;;;;;;;;5043051;28;20185;-81
2021/05/06 10:12:01;;;;;;;2.60;1.87;;;;;;;;;;5043490;28;20173;-80
2021/05/06 10:14:28;;;;;;;1.70;1.60;;;;;;;;;;5040656;28;20424;-80
2021/05/06 10:16:54;;;;;;;5.93;1.33;;;;;;;;;;5039186;28;20178;-80
2021/05/06 10:19:20;;;;;;;3.70;1.42;;;;;;;;;;5057361;28;20178;-83
2021/05/06 10:21:46;;;;;;;1.50;1.27;;;;;;;;;;5042080;28;20220;-80
2021/05/06 10:24:16;;;;;;;3.17;1.90;;;;;;;;;;5059257;28;20696;-82
2021/05/06 10:26:42;;;;;;;1.48;1.23;;;;;;;;;;5034009;28;20275;-83
2021/05/06 10:29:08;;;;;;;2.22;1.50;;;;;;;;;;5034946;28;20922;-84
2021/05/06 10:31:39;;;;;;;2.77;1.63;;;;;;;;;;5038707;28;20206;-81
2021/05/06 10:34:06;;;;;;;5.38;2.25;;;;;;;;;;5041846;28;20723;-84
2021/05/06 10:36:34;;;;;;;4.75;2.10;;;;;;;;;;5036150;28;20180;-81
2021/05/06 10:39:00;;;;;;;2.00;1.80;;;;;;;;;;5041087;28;20197;-81
2021/05/06 10:41:29;;;;;;;4.72;2.60;;;;;;;;;;5033955;28;20190;-80
2021/05/06 10:44:15;;;;;;;6.60;2.60;;;;;;;;;;5034298;28;20209;-79
2021/05/06 10:47:03;;;;;;;3.15;2.25;;;;;;;;;;5028631;28;20294;-79
2021/05/06 10:49:29;;;;;;;5.57;2.15;;;;;;;;;;5038990;28;20213;-80
2021/05/06 10:52:00;;;;;;;3.38;2.25;;;;;;;;;;5038645;28;20179;-83
2021/05/06 10:54:27;;;;;;;3.80;1.90;;;;;;;;;;5035427;28;20528;-80
2021/05/06 10:56:54;;;;;;;2.65;2.10;;;;;;;;;;5039865;28;20174;-80
2021/05/06 10:59:23;;;;;;;4.32;1.58;;;;;;;;;;5038323;28;20181;-81
2021/05/06 11:01:49;;;;;;;2.45;1.60;;;;;;;;;;5038062;28;20200;-78
2021/05/06 11:04:15;;;;;;;3.45;2.17;;;;;;;;;;5039918;28;20256;-80
2021/05/06 11:06:42;;;;;;;3.10;2.33;;;;;;;;;;5032179;28;20170;-79
2021/05/06 11:09:26;;;;;;;14.05;2.70;;;;;;;;;;5042951;28;20201;-78
2021/05/06 11:12:19;;;;;;;3.95;2.60;;;;;;;;;;5039234;28;20177;-82
2021/05/06 11:15:00;;;;;;;2.55;2.20;;;;;;;;;;5036513;28;20190;-79
2021/05/06 11:17:32;;;;;;;3.47;2.90;;;;;;;;;;5033985;28;20212;-81
2021/05/06 11:20:03;;;;;;;7.18;2.95;;;;;;;;;;5031196;28;20278;-79
2021/05/06 11:22:48;;;;;;;3.20;2.65;;;;;;;;;;5036377;28;20751;-80
2021/05/06 11:25:27;;;;;;;2.60;2.35;;;;;;;;;;5035802;28;20190;-78
2021/05/06 11:27:59;;;;;;;3.88;2.28;;;;;;;;;;5036000;28;20236;-79
2021/05/06 11:30:31;;;;;;;1.80;1.70;;;;;;;;;;5047493;28;20225;-79
2021/05/06 11:33:20;;;;;;;3.90;2.67;;;;;;;;;;5037185;28;20201;-79
2021/05/06 11:35:54;;;;;;;2.58;2.38;;;;;;;;;;5035859;28;20181;-80
2021/05/06 11:38:20;;;;;;;2.70;2.50;;;;;;;;;;5050409;28;20194;-80
2021/05/06 11:40:46;;;;;;;2.72;2.13;;;;;;;;;;5039959;28;20197;-80
2021/05/06 11:43:22;;;;;;;4.53;2.25;;;;;;;;;;5036580;28;20186;-81
2021/05/06 11:45:48;;;;;;;4.03;3.00;;;;;;;;;;5035906;28;20264;-80
2021/05/06 11:48:16;;;;;;;3.67;2.20;;;;;;;;;;5028897;28;20248;-79
2021/05/06 11:50:45;;;;;;;2.53;2.20;;;;;;;;;;5032015;28;20195;-78
2021/05/06 11:53:17;;;;;;;2.45;2.25;;;;;;;;;;5038437;28;20182;-79
2021/05/06 11:55:44;;;;;;;4.25;2.17;;;;;;;;;;5036221;28;20191;-79
2021/05/06 11:58:11;;;;;;;2.97;2.10;;;;;;;;;;5033294;28;20182;-79
2021/05/06 12:00:41;;;;;;;2.28;1.98;;;;;;;;;;5036206;28;20221;-79
2021/05/06 12:03:08;;;;;;;2.53;2.33;;;;;;;;;;5037727;28;20174;-80
2021/05/06 12:05:52;;;;;;;3.35;3.05;;;;;;;;;;5042087;28;20240;-80
2021/05/06 12:08:20;;;;;;;3.83;2.92;;;;;;;;;;5035175;28;20185;-80
2021/05/06 12:10:46;;;;;;;7.45;3.10;;;;;;;;;;5034561;28;20202;-81
2021/05/06 12:13:12;;;;;;;3.60;3.30;;;;;;;;;;5054369;28;20262;-80
2021/05/06 12:15:38;;;;;;;2.15;2.00;;;;;;;;;;5039926;28;20178;-80
2021/05/06 12:18:33;;;;;;;1.95;1.70;;;;;;;;;;5032055;28;20209;-80
2021/05/06 12:21:02;;;;;;;2.75;2.40;;;;;;;;;;5022694;28;20205;-80
2021/05/06 12:23:28;;;;;;;3.75;2.80;;;;;;;;;;5039062;28;21578;-80
2021/05/06 12:25:54;;;;;;;5.40;3.10;;;;;;;;;;5040364;28;20204;-80
2021/05/06 12:28:20;;;;;;;3.77;2.87;;;;;;;;;;5027362;28;20441;-80
2021/05/06 12:30:46;;;;;;;3.72;2.92;;;;;;;;;;5043164;28;21059;-79
2021/05/06 12:33:12;;;;;;;4.68;4.10;;;;;;;;;;5042879;28;20217;-80
2021/05/06 12:35:48;;;;;;;5.15;3.45;;;;;;;;;;5034725;28;20206;-80
2021/05/06 12:38:15;;;;;;;5.38;4.82;;;;;;;;;;5036270;28;20262;-79
2021/05/06 12:40:41;;;;;;;4.47;4.10;;;;;;;;;;5028047;28;20530;-80
2021/05/06 12:43:32;;;;;;;4.15;3.65;;;;;;;;;;5043606;28;20193;-79
2021/05/06 12:46:04;;;;;;;6.07;4.28;;;;;;;;;;5043114;28;20187;-80
2021/05/06 12:48:36;;;;;;;5.03;4.20;;;;;;;;;;5044442;28;20180;-78
2021/05/06 12:51:03;;;;;;;4.25;3.95;;;;;;;;;;5036575;28;20260;-79
2021/05/06 12:53:29;;;;;;;4.68;4.28;;;;;;;;;;5039947;28;20209;-80
2021/05/06 12:55:55;;;;;;;5.50;5.00;;;;;;;;;;5043067;28;20185;-79
2021/05/06 12:58:24;;;;;;;7.45;4.43;;;;;;;;;;5031406;28;20208;-78
2021/05/06 13:00:57;;;;;;;5.70;4.47;;;;;;;;;;5041471;28;20209;-79
2021/05/06 13:03:27;;;;;;;4.10;3.75;;;;;;;;;;5041443;28;20176;-80
2021/05/06 13:05:54;;;;;;;3.83;3.53;;;;;;;;;;5041872;28;20174;-79
2021/05/06 13:08:33;;;;;;;3.67;3.30;;;;;;;;;;5047385;28;20557;-79
2021/05/06 13:11:01;;;;;;;2.92;2.72;;;;;;;;;;5035559;28;20691;-80
2021/05/06 13:13:46;;;;;;;3.25;2.95;;;;;;;;;;5032251;28;20182;-79
2021/05/06 13:16:13;;;;;;;4.43;2.90;;;;;;;;;;5039669;28;20245;-79
2021/05/06 13:18:39;;;;;;;3.72;2.75;;;;;;;;;;5042670;28;20178;-79
2021/05/06 13:21:06;;;;;;;2.88;2.63;;;;;;;;;;5031276;28;20179;-81
2021/05/06 13:23:34;;;;;;;4.45;4.03;;;;;;;;;;5036083;28;20191;-80
2021/05/06 13:26:01;;;;;;;3.20;3.00;;;;;;;;;;5032322;28;20186;-78
2021/05/06 13:28:33;;;;;;;7.05;3.03;;;;;;;;;;5038690;28;20206;-79
2021/05/06 13:31:05;;;;;;;3.75;3.20;;;;;;;;;;5033903;28;20370;-79
2021/05/06 13:33:31;;;;;;;3.40;2.78;;;;;;;;;;5050205;28;20167;-80
2021/05/06 13:36:05;;;;;;;3.63;3.28;;;;;;;;;;5049654;28;20174;-81
2021/05/06 13:38:46;;;;;;;3.35;2.90;;;;;;;;;;5036113;28;20188;-79
2021/05/06 13:41:13;;;;;;;5.03;3.40;;;;;;;;;;5034760;28;20213;-80
2021/05/06 13:43:40;;;;;;;4.60;4.28;;;;;;;;;;5031597;28;20539;-80
2021/05/06 13:46:07;;;;;;;4.25;3.85;;;;;;;;;;5055015;28;20226;-80
2021/05/06 13:48:33;;;;;;;5.20;2.97;;;;;;;;;;5027661;28;20269;-81
2021/05/06 13:50:59;;;;;;;3.77;3.40;;;;;;;;;;5028183;28;20241;-80
2021/05/06 13:53:25;;;;;;;3.37;3.07;;;;;;;;;;5030814;28;20810;-80
2021/05/06 13:55:51;;;;;;;3.10;2.80;;;;;;;;;;5055712;28;20429;-77
2021/05/06 13:58:17;;;;;;;3.60;3.30;;;;;;;;;;5044831;28;20590;-80
2021/05/06 14:00:45;;;;;;;2.83;2.57;;;;;;;;;;5039687;28;20439;-79
2021/05/06 14:03:11;;;;;;;3.10;2.85;;;;;;;;;;5042819;28;20428;-80
2021/05/06 14:05:37;;;;;;;3.17;2.40;;;;;;;;;;5055023;28;20558;-78
2021/05/06 14:08:03;;;;;;;3.40;3.10;;;;;;;;;;5038929;28;20459;-80
2021/05/06 14:10:29;;;;;;;3.90;3.60;;;;;;;;;;5040136;28;20612;-80
2021/05/06 14:12:55;;;;;;;3.10;2.50;;;;;;;;;;5040767;28;20187;-79
2021/05/06 14:15:21;;;;;;;3.03;2.83;;;;;;;;;;5037425;28;20396;-79
2021/05/06 14:17:47;;;;;;;2.67;2.30;;;;;;;;;;5034321;28;20236;-80
2021/05/06 14:20:13;;;;;;;4.17;3.87;;;;;;;;;;5047015;28;20449;-79
2021/05/06 14:22:39;;;;;;;4.05;3.45;;;;;;;;;;5038164;28;20448;-78
2021/05/06 14:25:05;;;;;;;5.80;3.10;;;;;;;;;;5044705;28;20177;-79
2021/05/06 14:27:33;;;;;;;2.80;2.42;;;;;;;;;;5057789;28;20201;-80
2021/05/06 14:29:59;;;;;;;5.82;2.30;;;;;;;;;;5035593;28;20213;-78
2021/05/06 14:32:25;;;;;;;3.90;3.00;;;;;;;;;;5028991;28;20188;-79
2021/05/06 14:34:54;;;;;;;3.50;3.03;;;;;;;;;;5037855;28;20186;-78
2021/05/06 14:37:22;;;;;;;3.85;3.03;;;;;;;;;;5036931;28;20432;-78
2021/05/06 14:39:48;;;;;;;3.08;2.72;;;;;;;;;;5038389;28;20200;-78
2021/05/06 14:42:14;;;;;;;3.88;3.47;;;;;;;;;;5033119;28;20213;-79
2021/05/06 14:44:40;;;;;;;3.25;3.03;;;;;;;;;;5037863;28;20221;-80
2021/05/06 14:47:06;;;;;;;5.18;2.20;;;;;;;;;;5041558;28;20212;-80
2021/05/06 14:49:32;;;;;;;3.37;3.03;;;;;;;;;;5030679;28;20178;-79
2021/05/06 14:51:58;;;;;;;2.70;2.45;;;;;;;;;;5033294;28;20434;-79
2021/05/06 14:54:24;;;;;;;2.75;2.45;;;;;;;;;;5032664;28;20193;-81
2021/05/06 14:56:49;;;;;;;3.30;2.73;;;;;;;;;;5035220;28;20706;-83
2021/05/06 14:59:15;;;;;;;5.23;2.50;;;;;;;;;;5036378;28;20467;-81
2021/05/06 15:01:42;;;;;;;3.00;2.80;;;;;;;;;;5037898;28;20432;-83
2021/05/06 15:04:07;;;;;;;2.97;2.78;;;;;;;;;;5040699;28;20209;-83
2021/05/06 15:06:33;;;;;;;2.37;2.17;;;;;;;;;;5039835;28;20177;-82
2021/05/06 15:09:03;;;;;;;2.30;2.20;;;;;;;;;;5038403;28;20491;-84
2021/05/06 15:11:30;;;;;;;2.70;2.50;;;;;;;;;;5032935;28;20483;-83
2021/05/06 15:13:56;;;;;;;3.05;2.85;;;;;;;;;;5026852;28;20651;-83
2021/05/06 15:16:22;;;;;;;4.13;2.47;;;;;;;;;;5034958;28;20181;-84
2021/05/06 15:18:48;;;;;;;3.37;2.67;;;;;;;;;;5026485;28;20436;-84
2021/05/06 15:21:14;;;;;;;2.53;2.10;;;;;;;;;;5033744;28;20468;-83
2021/05/06 15:23:40;;;;;;;5.53;2.20;;;;;;;;;;5028746;28;20445;-83
2021/05/06 15:26:06;;;;;;;2.95;2.67;;;;;;;;;;5036405;28;20524;-82
2021/05/06 15:28:32;;;;;;;2.37;2.17;;;;;;;;;;5028286;28;20228;-82
2021/05/06 15:30:58;;;;;;;3.05;2.30;;;;;;;;;;5033704;28;20497;-83
2021/05/06 15:33:24;;;;;;;3.80;3.17;;;;;;;;;;5035176;28;20193;-84
2021/05/06 15:35:50;;;;;;;3.13;2.93;;;;;;;;;;5032855;28;20179;-83
2021/05/06 15:38:19;;;;;;;4.15;2.92;;;;;;;;;;5038406;28;20440;-84
2021/05/06 15:40:45;;;;;;;2.80;2.60;;;;;;;;;;5040175;28;20190;-82
2021/05/06 15:43:11;;;;;;;2.45;2.25;;;;;;;;;;5038944;28;20190;-81
2021/05/06 15:45:41;;;;;;;2.60;2.40;;;;;;;;;;5030048;28;20229;-82
2021/05/06 15:48:11;;;;;;;2.70;2.45;;;;;;;;;;5037029;28;20181;-83
2021/05/06 15:50:38;;;;;;;4.22;3.30;;;;;;;;;;5037020;28;20269;-82
2021/05/06 15:53:04;;;;;;;3.72;2.95;;;;;;;;;;5055512;28;20651;-83
2021/05/06 15:55:31;;;;;;;3.05;2.70;;;;;;;;;;5033427;28;20182;-81
2021/05/06 15:57:57;;;;;;;2.60;1.90;;;;;;;;;;5055040;28;20178;-83
2021/05/06 16:00:25;;;;;;;2.53;1.67;;;;;;;;;;5032567;28;20225;-82
2021/05/06 16:02:55;;;;;;;3.25;1.65;;;;;;;;;;5030700;28;20187;-82
2021/05/06 16:05:26;;;;;;;1.80;1.70;;;;;;;;;;5038606;28;20188;-82
2021/05/06 16:07:53;;;;;;;1.70;1.60;;;;;;;;;;5035253;28;20178;-81
2021/05/06 16:10:19;;;;;;;1.60;1.50;;;;;;;;;;5058996;28;20206;-82
2021/05/06 16:12:46;;;;;;;2.80;1.83;;;;;;;;;;5042035;28;20174;-82
2021/05/06 16:15:12;;;;;;;1.70;1.60;;;;;;;;;;5051936;28;20200;-82
2021/05/06 16:17:38;;;;;;;1.67;1.58;;;;;;;;;;5036125;28;20186;-82
2021/05/06 16:20:12;;;;;;;2.40;1.50;;;;;;;;;;5040455;28;20193;-83
2021/05/06 16:22:38;;;;;;;2.05;1.80;;;;;;;;;;5038056;28;20444;-82
2021/05/06 16:25:04;;;;;;;2.75;2.17;;;;;;;;;;5038519;28;20182;-82
2021/05/06 16:27:30;;;;;;;2.17;2.00;;;;;;;;;;5041859;28;20177;-81
2021/05/06 16:29:56;;;;;;;2.40;2.20;;;;;;;;;;5042776;28;20662;-81
2021/05/06 16:32:22;;;;;;;3.27;1.87;;;;;;;;;;5038415;28;20441;-79
2021/05/06 16:34:48;;;;;;;2.20;1.60;;;;;;;;;;5032676;28;20436;-80
2021/05/06 16:37:26;;;;;;;1.85;1.42;;;;;;;;;;5035419;28;20508;-81
2021/05/06 16:42:44;;;;;;;1.42;1.30;;;;;;;;;;5041062;28;20428;-81
2021/05/06 16:45:10;;;;;;;3.50;1.42;;;;;;;;;;5040112;28;20225;-80
2021/05/06 16:47:36;;;;;;;1.67;1.58;;;;;;;;;;5035801;28;20193;-81
2021/05/06 16:50:02;;;;;;;2.00;1.60;;;;;;;;;;5056160;28;20198;-81
2021/05/06 16:52:29;;;;;;;1.58;1.48;;;;;;;;;;5047150;28;20530;-80
2021/05/06 16:54:55;;;;;;;2.47;1.40;;;;;;;;;;5050697;28;20239;-81
2021/05/06 16:57:21;;;;;;;3.00;2.53;;;;;;;;;;5034264;28;20182;-80
2021/05/06 16:59:47;;;;;;;2.37;2.20;;;;;;;;;;5032318;28;20452;-81
2021/05/06 17:02:12;;;;;;;2.30;2.10;;;;;;;;;;5032926;28;20444;-79
2021/05/06 17:04:39;;;;;;;1.97;1.87;;;;;;;;;;5048835;28;20443;-79
2021/05/06 17:07:06;;;;;;;3.05;2.60;;;;;;;;;;5056971;28;20435;-80
2021/05/06 17:09:36;;;;;;;91.22;78.05;;;;;;;;;;5055452;28;20213;-81
2021/05/06 17:12:02;;;;;;;49.92;44.75;;;;;;;;;;5040492;28;20610;-80
2021/05/06 17:14:28;;;;;;;31.85;28.65;;;;;;;;;;5033977;28;20182;-80
2021/05/06 17:16:55;;;;;;;4.97;4.50;;;;;;;;;;5041105;28;20178;-81
2021/05/06 17:19:22;;;;;;;3.65;3.00;;;;;;;;;;5029846;28;20429;-81
2021/05/06 17:21:48;;;;;;;4.20;3.80;;;;;;;;;;5033509;28;20187;-80
2021/05/06 17:24:16;;;;;;;4.67;4.30;;;;;;;;;;5031436;28;20191;-81
2021/05/06 17:26:42;;;;;;;2.08;1.90;;;;;;;;;;5039576;28;20428;-76
2021/05/06 17:29:11;;;;;;;2.22;2.03;;;;;;;;;;5049212;28;20210;-80
2021/05/06 17:31:37;;;;;;;2.40;2.30;;;;;;;;;;5036275;28;20206;-81
2021/05/06 17:34:06;;;;;;;2.20;2.10;;;;;;;;;;5041325;28;20766;-78
2021/05/06 17:36:32;;;;;;;2.33;2.13;;;;;;;;;;5040028;28;20192;-81
2021/05/06 17:38:59;;;;;;;4.03;2.35;;;;;;;;;;5044975;28;20182;-82
2021/05/06 17:41:28;;;;;;;2.38;2.13;;;;;;;;;;5034603;28;20210;-78
2021/05/06 17:43:54;;;;;;;1.85;1.75;;;;;;;;;;5031274;28;20220;-80
2021/05/06 17:46:20;;;;;;;1.77;1.67;;;;;;;;;;5032476;28;20205;-80
2021/05/06 17:48:49;;;;;;;2.20;2.00;;;;;;;;;;5026463;28;20177;-80
2021/05/06 17:51:18;;;;;;;3.42;2.53;;;;;;;;;;5037790;28;20205;-83
2021/05/06 17:53:44;;;;;;;3.75;2.70;;;;;;;;;;5035182;28;20200;-83